sensor_id;sensor_type;location;lat;lon;timestamp;P1;durP1;ratioP1;P2;durP2;ratioP2
15312;SDS011;7757;52.626;4.746;2022-12-29T00:00:12;6.32;;;1.40;;
15312;SDS011;7757;52.626;4.746;2022-12-29T00:02:39;5.97;;;1.45;;
15312;SDS011;7757;52.626;4.746;2022-12-29T00:05:06;7.60;;;1.90;;
15312;SDS011;7757;52.626;4.746;2022-12-29T00:07:33;4.80;;;1.30;;
15312;SDS011;7757;52.626;4.746;2022-12-29T00:10:01;4.53;;;1.33;;
15312;SDS011;7757;52.626;4.746;2022-12-29T00:12:28;5.72;;;1.30;;
15312;SDS011;7757;52.626;4.746;2022-12-29T00:15:14;6.07;;;1.50;;
15312;SDS011;7757;52.626;4.746;2022-12-29T00:17:58;6.00;;;1.30;;
15312;SDS011;7757;52.626;4.746;2022-12-29T00:20:25;10.07;;;1.50;;
15312;SDS011;7757;52.626;4.746;2022-12-29T00:23:09;5.60;;;1.42;;
15312;SDS011;7757;52.626;4.746;2022-12-29T00:25:55;6.28;;;1.48;;
15312;SDS011;7757;52.626;4.746;2022-12-29T00:28:39;6.18;;;1.40;;
15312;SDS011;7757;52.626;4.746;2022-12-29T00:31:23;5.45;;;1.42;;
15312;SDS011;7757;52.626;4.746;2022-12-29T00:34:22;4.97;;;1.30;;
15312;SDS011;7757;52.626;4.746;2022-12-29T00:37:07;5.78;;;1.50;;
15312;SDS011;7757;52.626;4.746;2022-12-29T00:39:33;6.00;;;1.40;;
15312;SDS011;7757;52.626;4.746;2022-12-29T00:42:27;6.50;;;1.70;;
15312;SDS011;7757;52.626;4.746;2022-12-29T00:45:26;6.88;;;1.45;;
15312;SDS011;7757;52.626;4.746;2022-12-29T00:47:52;7.07;;;1.30;;
15312;SDS011;7757;52.626;4.746;2022-12-29T00:50:19;5.80;;;1.40;;
15312;SDS011;7757;52.626;4.746;2022-12-29T00:52:44;6.50;;;1.45;;
15312;SDS011;7757;52.626;4.746;2022-12-29T00:55:11;5.15;;;1.17;;
15312;SDS011;7757;52.626;4.746;2022-12-29T00:57:39;7.05;;;1.45;;
15312;SDS011;7757;52.626;4.746;2022-12-29T01:00:06;5.65;;;1.50;;
15312;SDS011;7757;52.626;4.746;2022-12-29T01:02:33;8.50;;;1.48;;
15312;SDS011;7757;52.626;4.746;2022-12-29T01:05:00;7.88;;;1.60;;
15312;SDS011;7757;52.626;4.746;2022-12-29T01:07:26;6.25;;;1.38;;
15312;SDS011;7757;52.626;4.746;2022-12-29T01:09:53;2.95;;;1.05;;
15312;SDS011;7757;52.626;4.746;2022-12-29T01:12:38;5.15;;;1.10;;
15312;SDS011;7757;52.626;4.746;2022-12-29T01:15:10;4.68;;;1.20;;
15312;SDS011;7757;52.626;4.746;2022-12-29T01:17:38;6.35;;;1.73;;
15312;SDS011;7757;52.626;4.746;2022-12-29T01:20:05;6.07;;;1.35;;
15312;SDS011;7757;52.626;4.746;2022-12-29T01:22:32;6.78;;;1.52;;
15312;SDS011;7757;52.626;4.746;2022-12-29T01:24:59;2.80;;;1.00;;
15312;SDS011;7757;52.626;4.746;2022-12-29T01:27:25;5.25;;;1.40;;
15312;SDS011;7757;52.626;4.746;2022-12-29T01:29:53;7.03;;;1.35;;
15312;SDS011;7757;52.626;4.746;2022-12-29T01:32:20;7.47;;;1.50;;
15312;SDS011;7757;52.626;4.746;2022-12-29T01:34:47;5.80;;;1.38;;
15312;SDS011;7757;52.626;4.746;2022-12-29T01:37:14;3.50;;;1.00;;
15312;SDS011;7757;52.626;4.746;2022-12-29T01:39:40;5.65;;;1.30;;
15312;SDS011;7757;52.626;4.746;2022-12-29T01:42:10;6.85;;;1.20;;
15312;SDS011;7757;52.626;4.746;2022-12-29T01:44:47;4.43;;;1.30;;
15312;SDS011;7757;52.626;4.746;2022-12-29T01:47:19;6.40;;;1.40;;
15312;SDS011;7757;52.626;4.746;2022-12-29T01:49:50;3.58;;;1.25;;
15312;SDS011;7757;52.626;4.746;2022-12-29T01:52:19;4.15;;;1.10;;
15312;SDS011;7757;52.626;4.746;2022-12-29T01:54:47;4.95;;;1.10;;
15312;SDS011;7757;52.626;4.746;2022-12-29T01:57:19;5.28;;;1.17;;
15312;SDS011;7757;52.626;4.746;2022-12-29T01:59:51;4.13;;;1.15;;
15312;SDS011;7757;52.626;4.746;2022-12-29T02:02:22;4.45;;;1.20;;
15312;SDS011;7757;52.626;4.746;2022-12-29T02:04:50;7.55;;;1.10;;
15312;SDS011;7757;52.626;4.746;2022-12-29T02:07:20;9.00;;;1.48;;
15312;SDS011;7757;52.626;4.746;2022-12-29T02:09:49;3.40;;;1.02;;
15312;SDS011;7757;52.626;4.746;2022-12-29T02:12:18;5.40;;;1.55;;
15312;SDS011;7757;52.626;4.746;2022-12-29T02:14:46;7.40;;;1.35;;
15312;SDS011;7757;52.626;4.746;2022-12-29T02:17:17;6.35;;;1.33;;
15312;SDS011;7757;52.626;4.746;2022-12-29T02:20:04;6.10;;;1.20;;
15312;SDS011;7757;52.626;4.746;2022-12-29T02:22:54;8.60;;;1.30;;
15312;SDS011;7757;52.626;4.746;2022-12-29T02:25:41;4.88;;;1.10;;
15312;SDS011;7757;52.626;4.746;2022-12-29T02:28:33;5.40;;;1.20;;
15312;SDS011;7757;52.626;4.746;2022-12-29T02:31:18;6.43;;;1.23;;
15312;SDS011;7757;52.626;4.746;2022-12-29T02:33:55;5.20;;;1.15;;
15312;SDS011;7757;52.626;4.746;2022-12-29T02:36:36;4.68;;;1.20;;
15312;SDS011;7757;52.626;4.746;2022-12-29T02:39:11;5.93;;;1.40;;
15312;SDS011;7757;52.626;4.746;2022-12-29T02:41:47;5.63;;;1.35;;
15312;SDS011;7757;52.626;4.746;2022-12-29T02:44:24;5.78;;;1.30;;
15312;SDS011;7757;52.626;4.746;2022-12-29T02:47:02;6.47;;;1.25;;
15312;SDS011;7757;52.626;4.746;2022-12-29T02:49:36;3.67;;;1.08;;
15312;SDS011;7757;52.626;4.746;2022-12-29T02:52:09;5.07;;;1.40;;
15312;SDS011;7757;52.626;4.746;2022-12-29T02:54:42;4.78;;;1.20;;
15312;SDS011;7757;52.626;4.746;2022-12-29T02:57:09;4.53;;;1.20;;
15312;SDS011;7757;52.626;4.746;2022-12-29T02:59:37;7.95;;;1.48;;
15312;SDS011;7757;52.626;4.746;2022-12-29T03:02:13;5.22;;;1.20;;
15312;SDS011;7757;52.626;4.746;2022-12-29T03:05:15;6.53;;;1.30;;
15312;SDS011;7757;52.626;4.746;2022-12-29T03:07:54;5.15;;;1.10;;
15312;SDS011;7757;52.626;4.746;2022-12-29T03:10:33;4.85;;;1.15;;
15312;SDS011;7757;52.626;4.746;2022-12-29T03:13:09;5.93;;;1.20;;
15312;SDS011;7757;52.626;4.746;2022-12-29T03:16:00;5.28;;;1.10;;
15312;SDS011;7757;52.626;4.746;2022-12-29T03:18:37;5.25;;;1.20;;
15312;SDS011;7757;52.626;4.746;2022-12-29T03:21:12;5.55;;;1.23;;
15312;SDS011;7757;52.626;4.746;2022-12-29T03:23:43;6.75;;;1.50;;
15312;SDS011;7757;52.626;4.746;2022-12-29T03:26:14;6.22;;;1.38;;
15312;SDS011;7757;52.626;4.746;2022-12-29T03:28:45;8.23;;;1.30;;
15312;SDS011;7757;52.626;4.746;2022-12-29T03:31:17;8.93;;;1.20;;
15312;SDS011;7757;52.626;4.746;2022-12-29T03:33:46;8.27;;;1.48;;
15312;SDS011;7757;52.626;4.746;2022-12-29T03:36:17;4.57;;;1.10;;
15312;SDS011;7757;52.626;4.746;2022-12-29T03:38:50;8.45;;;1.50;;
15312;SDS011;7757;52.626;4.746;2022-12-29T03:43:54;4.75;;;1.10;;
15312;SDS011;7757;52.626;4.746;2022-12-29T03:46:21;4.43;;;1.10;;
15312;SDS011;7757;52.626;4.746;2022-12-29T03:48:49;4.15;;;1.10;;
15312;SDS011;7757;52.626;4.746;2022-12-29T03:51:16;5.07;;;1.23;;
15312;SDS011;7757;52.626;4.746;2022-12-29T03:53:42;9.00;;;1.30;;
15312;SDS011;7757;52.626;4.746;2022-12-29T03:56:09;6.38;;;1.23;;
15312;SDS011;7757;52.626;4.746;2022-12-29T03:58:35;7.57;;;1.40;;
15312;SDS011;7757;52.626;4.746;2022-12-29T04:01:02;6.13;;;1.02;;
15312;SDS011;7757;52.626;4.746;2022-12-29T04:03:28;9.02;;;1.40;;
15312;SDS011;7757;52.626;4.746;2022-12-29T04:05:56;6.30;;;1.20;;
15312;SDS011;7757;52.626;4.746;2022-12-29T04:08:23;6.50;;;1.40;;
15312;SDS011;7757;52.626;4.746;2022-12-29T04:10:49;7.50;;;1.40;;
15312;SDS011;7757;52.626;4.746;2022-12-29T04:13:16;9.73;;;1.60;;
15312;SDS011;7757;52.626;4.746;2022-12-29T04:15:43;6.93;;;1.40;;
15312;SDS011;7757;52.626;4.746;2022-12-29T04:18:10;7.68;;;1.30;;
15312;SDS011;7757;52.626;4.746;2022-12-29T04:20:37;6.45;;;1.30;;
15312;SDS011;7757;52.626;4.746;2022-12-29T04:23:22;9.88;;;1.60;;
15312;SDS011;7757;52.626;4.746;2022-12-29T04:25:48;7.72;;;1.30;;
15312;SDS011;7757;52.626;4.746;2022-12-29T04:28:15;7.47;;;1.50;;
15312;SDS011;7757;52.626;4.746;2022-12-29T04:30:42;8.38;;;1.40;;
15312;SDS011;7757;52.626;4.746;2022-12-29T04:33:10;8.32;;;1.52;;
15312;SDS011;7757;52.626;4.746;2022-12-29T04:35:36;6.45;;;1.20;;
15312;SDS011;7757;52.626;4.746;2022-12-29T04:38:03;8.75;;;1.40;;
15312;SDS011;7757;52.626;4.746;2022-12-29T04:40:31;10.65;;;1.40;;
15312;SDS011;7757;52.626;4.746;2022-12-29T04:42:57;10.57;;;1.60;;
15312;SDS011;7757;52.626;4.746;2022-12-29T04:45:24;10.80;;;1.65;;
15312;SDS011;7757;52.626;4.746;2022-12-29T04:47:50;8.18;;;1.40;;
15312;SDS011;7757;52.626;4.746;2022-12-29T04:50:17;7.25;;;1.40;;
15312;SDS011;7757;52.626;4.746;2022-12-29T04:52:44;6.28;;;1.23;;
15312;SDS011;7757;52.626;4.746;2022-12-29T04:55:10;10.07;;;1.65;;
15312;SDS011;7757;52.626;4.746;2022-12-29T04:57:38;8.75;;;1.60;;
15312;SDS011;7757;52.626;4.746;2022-12-29T05:00:06;9.13;;;1.38;;
15312;SDS011;7757;52.626;4.746;2022-12-29T05:02:34;11.10;;;2.33;;
15312;SDS011;7757;52.626;4.746;2022-12-29T05:05:02;12.85;;;1.73;;
15312;SDS011;7757;52.626;4.746;2022-12-29T05:07:29;9.27;;;1.50;;
15312;SDS011;7757;52.626;4.746;2022-12-29T05:09:55;8.15;;;1.33;;
15312;SDS011;7757;52.626;4.746;2022-12-29T05:12:22;8.07;;;1.45;;
15312;SDS011;7757;52.626;4.746;2022-12-29T05:14:50;8.57;;;1.48;;
15312;SDS011;7757;52.626;4.746;2022-12-29T05:17:16;6.20;;;1.30;;
15312;SDS011;7757;52.626;4.746;2022-12-29T05:19:43;8.32;;;1.40;;
15312;SDS011;7757;52.626;4.746;2022-12-29T05:22:10;10.00;;;1.67;;
15312;SDS011;7757;52.626;4.746;2022-12-29T05:24:36;9.32;;;1.67;;
15312;SDS011;7757;52.626;4.746;2022-12-29T05:27:03;12.25;;;1.60;;
15312;SDS011;7757;52.626;4.746;2022-12-29T05:29:29;9.65;;;1.60;;
15312;SDS011;7757;52.626;4.746;2022-12-29T05:31:58;9.27;;;1.50;;
15312;SDS011;7757;52.626;4.746;2022-12-29T05:34:24;8.48;;;1.48;;
15312;SDS011;7757;52.626;4.746;2022-12-29T05:36:51;10.40;;;1.50;;
15312;SDS011;7757;52.626;4.746;2022-12-29T05:39:18;9.23;;;1.70;;
15312;SDS011;7757;52.626;4.746;2022-12-29T05:41:45;8.77;;;1.52;;
15312;SDS011;7757;52.626;4.746;2022-12-29T05:44:11;10.10;;;1.65;;
15312;SDS011;7757;52.626;4.746;2022-12-29T05:46:38;10.25;;;1.73;;
15312;SDS011;7757;52.626;4.746;2022-12-29T05:49:06;9.02;;;1.50;;
15312;SDS011;7757;52.626;4.746;2022-12-29T05:51:33;9.07;;;1.60;;
15312;SDS011;7757;52.626;4.746;2022-12-29T05:53:59;11.32;;;1.73;;
15312;SDS011;7757;52.626;4.746;2022-12-29T05:56:26;9.23;;;1.67;;
15312;SDS011;7757;52.626;4.746;2022-12-29T05:58:54;9.57;;;1.60;;
15312;SDS011;7757;52.626;4.746;2022-12-29T06:01:20;9.60;;;1.92;;
15312;SDS011;7757;52.626;4.746;2022-12-29T06:03:47;8.18;;;1.50;;
15312;SDS011;7757;52.626;4.746;2022-12-29T06:06:16;10.10;;;1.80;;
15312;SDS011;7757;52.626;4.746;2022-12-29T06:08:42;8.85;;;1.58;;
15312;SDS011;7757;52.626;4.746;2022-12-29T06:11:09;11.88;;;1.60;;
15312;SDS011;7757;52.626;4.746;2022-12-29T06:13:36;8.32;;;1.60;;
15312;SDS011;7757;52.626;4.746;2022-12-29T06:16:02;10.60;;;1.65;;
15312;SDS011;7757;52.626;4.746;2022-12-29T06:18:29;9.23;;;1.60;;
15312;SDS011;7757;52.626;4.746;2022-12-29T06:20:59;11.57;;;1.45;;
15312;SDS011;7757;52.626;4.746;2022-12-29T06:23:28;10.82;;;1.85;;
15312;SDS011;7757;52.626;4.746;2022-12-29T06:25:55;10.45;;;1.75;;
15312;SDS011;7757;52.626;4.746;2022-12-29T06:28:22;10.15;;;1.48;;
15312;SDS011;7757;52.626;4.746;2022-12-29T06:30:49;12.38;;;2.08;;
15312;SDS011;7757;52.626;4.746;2022-12-29T06:33:15;10.30;;;1.67;;
15312;SDS011;7757;52.626;4.746;2022-12-29T06:35:42;11.13;;;1.80;;
15312;SDS011;7757;52.626;4.746;2022-12-29T06:38:10;12.13;;;1.90;;
15312;SDS011;7757;52.626;4.746;2022-12-29T06:40:38;9.65;;;1.65;;
15312;SDS011;7757;52.626;4.746;2022-12-29T06:43:06;7.15;;;1.50;;
15312;SDS011;7757;52.626;4.746;2022-12-29T06:45:32;9.80;;;1.77;;
15312;SDS011;7757;52.626;4.746;2022-12-29T06:47:59;12.55;;;1.85;;
15312;SDS011;7757;52.626;4.746;2022-12-29T06:50:26;8.23;;;1.60;;
15312;SDS011;7757;52.626;4.746;2022-12-29T06:52:52;9.43;;;2.00;;
15312;SDS011;7757;52.626;4.746;2022-12-29T06:55:19;11.30;;;1.95;;
15312;SDS011;7757;52.626;4.746;2022-12-29T06:57:47;10.68;;;1.75;;
15312;SDS011;7757;52.626;4.746;2022-12-29T07:00:14;9.73;;;1.80;;
15312;SDS011;7757;52.626;4.746;2022-12-29T07:02:42;11.18;;;2.05;;
15312;SDS011;7757;52.626;4.746;2022-12-29T07:05:08;12.15;;;1.80;;
15312;SDS011;7757;52.626;4.746;2022-12-29T07:07:35;9.02;;;1.60;;
15312;SDS011;7757;52.626;4.746;2022-12-29T07:10:02;8.43;;;1.80;;
15312;SDS011;7757;52.626;4.746;2022-12-29T07:12:28;12.65;;;2.00;;
15312;SDS011;7757;52.626;4.746;2022-12-29T07:14:56;11.25;;;1.67;;
15312;SDS011;7757;52.626;4.746;2022-12-29T07:17:23;10.23;;;1.73;;
15312;SDS011;7757;52.626;4.746;2022-12-29T07:19:50;8.85;;;1.80;;
15312;SDS011;7757;52.626;4.746;2022-12-29T07:22:16;9.93;;;1.55;;
15312;SDS011;7757;52.626;4.746;2022-12-29T07:24:43;12.73;;;2.03;;
15312;SDS011;7757;52.626;4.746;2022-12-29T07:27:09;10.88;;;1.70;;
15312;SDS011;7757;52.626;4.746;2022-12-29T07:29:36;14.65;;;1.88;;
15312;SDS011;7757;52.626;4.746;2022-12-29T07:32:04;12.80;;;1.80;;
15312;SDS011;7757;52.626;4.746;2022-12-29T07:34:31;12.85;;;1.90;;
15312;SDS011;7757;52.626;4.746;2022-12-29T07:36:57;9.88;;;1.85;;
15312;SDS011;7757;52.626;4.746;2022-12-29T07:39:24;12.23;;;2.13;;
15312;SDS011;7757;52.626;4.746;2022-12-29T07:41:51;10.50;;;1.83;;
15312;SDS011;7757;52.626;4.746;2022-12-29T07:44:17;11.90;;;2.00;;
15312;SDS011;7757;52.626;4.746;2022-12-29T07:46:44;9.40;;;1.75;;
15312;SDS011;7757;52.626;4.746;2022-12-29T07:49:12;11.95;;;2.10;;
15312;SDS011;7757;52.626;4.746;2022-12-29T07:51:38;10.18;;;1.83;;
15312;SDS011;7757;52.626;4.746;2022-12-29T07:54:05;10.52;;;1.80;;
15312;SDS011;7757;52.626;4.746;2022-12-29T07:56:32;12.65;;;2.10;;
15312;SDS011;7757;52.626;4.746;2022-12-29T07:58:58;8.80;;;1.50;;
15312;SDS011;7757;52.626;4.746;2022-12-29T08:01:25;9.93;;;1.55;;
15312;SDS011;7757;52.626;4.746;2022-12-29T08:03:51;9.45;;;1.65;;
15312;SDS011;7757;52.626;4.746;2022-12-29T08:06:19;8.80;;;1.67;;
15312;SDS011;7757;52.626;4.746;2022-12-29T08:08:46;10.48;;;1.55;;
15312;SDS011;7757;52.626;4.746;2022-12-29T08:11:13;9.73;;;1.70;;
15312;SDS011;7757;52.626;4.746;2022-12-29T08:13:40;9.77;;;1.83;;
15312;SDS011;7757;52.626;4.746;2022-12-29T08:16:06;13.07;;;2.13;;
15312;SDS011;7757;52.626;4.746;2022-12-29T08:18:33;9.52;;;1.73;;
15312;SDS011;7757;52.626;4.746;2022-12-29T08:21:01;14.93;;;1.73;;
15312;SDS011;7757;52.626;4.746;2022-12-29T08:23:30;11.25;;;1.92;;
15312;SDS011;7757;52.626;4.746;2022-12-29T08:25:57;11.00;;;1.88;;
15312;SDS011;7757;52.626;4.746;2022-12-29T08:28:24;12.63;;;1.90;;
15312;SDS011;7757;52.626;4.746;2022-12-29T08:30:51;10.63;;;1.95;;
15312;SDS011;7757;52.626;4.746;2022-12-29T08:33:17;10.45;;;1.92;;
15312;SDS011;7757;52.626;4.746;2022-12-29T08:35:44;11.05;;;2.15;;
15312;SDS011;7757;52.626;4.746;2022-12-29T08:38:11;11.30;;;2.10;;
15312;SDS011;7757;52.626;4.746;2022-12-29T08:40:38;11.50;;;2.00;;
15312;SDS011;7757;52.626;4.746;2022-12-29T08:43:05;12.32;;;2.10;;
15312;SDS011;7757;52.626;4.746;2022-12-29T08:45:32;11.23;;;1.80;;
15312;SDS011;7757;52.626;4.746;2022-12-29T08:47:58;10.60;;;1.85;;
15312;SDS011;7757;52.626;4.746;2022-12-29T08:50:25;7.53;;;1.70;;
15312;SDS011;7757;52.626;4.746;2022-12-29T08:52:52;10.77;;;1.52;;
15312;SDS011;7757;52.626;4.746;2022-12-29T08:55:18;9.45;;;1.65;;
15312;SDS011;7757;52.626;4.746;2022-12-29T08:57:46;13.52;;;1.85;;
15312;SDS011;7757;52.626;4.746;2022-12-29T09:00:13;8.43;;;1.55;;
15312;SDS011;7757;52.626;4.746;2022-12-29T09:02:41;12.77;;;1.77;;
15312;SDS011;7757;52.626;4.746;2022-12-29T09:05:08;11.13;;;1.73;;
15312;SDS011;7757;52.626;4.746;2022-12-29T09:07:35;8.55;;;1.70;;
15312;SDS011;7757;52.626;4.746;2022-12-29T09:10:02;12.43;;;1.77;;
15312;SDS011;7757;52.626;4.746;2022-12-29T09:12:30;10.65;;;1.90;;
15312;SDS011;7757;52.626;4.746;2022-12-29T09:14:58;9.90;;;1.75;;
15312;SDS011;7757;52.626;4.746;2022-12-29T09:17:25;9.27;;;1.73;;
15312;SDS011;7757;52.626;4.746;2022-12-29T09:20:10;10.43;;;2.00;;
15312;SDS011;7757;52.626;4.746;2022-12-29T09:22:37;13.68;;;1.55;;
15312;SDS011;7757;52.626;4.746;2022-12-29T09:25:04;11.25;;;1.80;;
15312;SDS011;7757;52.626;4.746;2022-12-29T09:27:31;11.52;;;1.98;;
15312;SDS011;7757;52.626;4.746;2022-12-29T09:30:00;12.27;;;1.98;;
15312;SDS011;7757;52.626;4.746;2022-12-29T09:32:26;10.00;;;1.75;;
15312;SDS011;7757;52.626;4.746;2022-12-29T09:34:53;11.65;;;1.90;;
15312;SDS011;7757;52.626;4.746;2022-12-29T09:37:20;10.00;;;1.65;;
15312;SDS011;7757;52.626;4.746;2022-12-29T09:39:46;11.77;;;2.03;;
15312;SDS011;7757;52.626;4.746;2022-12-29T09:42:14;9.68;;;1.67;;
15312;SDS011;7757;52.626;4.746;2022-12-29T09:44:51;11.98;;;1.88;;
15312;SDS011;7757;52.626;4.746;2022-12-29T09:47:29;8.85;;;1.63;;
15312;SDS011;7757;52.626;4.746;2022-12-29T09:49:56;9.43;;;1.70;;
15312;SDS011;7757;52.626;4.746;2022-12-29T09:52:29;9.20;;;1.70;;
15312;SDS011;7757;52.626;4.746;2022-12-29T09:54:58;8.38;;;1.75;;
15312;SDS011;7757;52.626;4.746;2022-12-29T09:57:29;9.85;;;2.00;;
15312;SDS011;7757;52.626;4.746;2022-12-29T10:00:01;10.93;;;1.85;;
15312;SDS011;7757;52.626;4.746;2022-12-29T10:02:36;8.70;;;1.50;;
15312;SDS011;7757;52.626;4.746;2022-12-29T10:05:12;6.85;;;1.75;;
15312;SDS011;7757;52.626;4.746;2022-12-29T10:07:49;10.27;;;1.83;;
15312;SDS011;7757;52.626;4.746;2022-12-29T10:10:26;11.85;;;2.08;;
15312;SDS011;7757;52.626;4.746;2022-12-29T10:13:04;7.28;;;1.77;;
15312;SDS011;7757;52.626;4.746;2022-12-29T10:15:50;12.43;;;1.80;;
15312;SDS011;7757;52.626;4.746;2022-12-29T10:18:32;8.25;;;1.75;;
15312;SDS011;7757;52.626;4.746;2022-12-29T10:21:15;9.20;;;1.55;;
15312;SDS011;7757;52.626;4.746;2022-12-29T10:23:50;8.45;;;1.55;;
15312;SDS011;7757;52.626;4.746;2022-12-29T10:26:19;9.27;;;2.10;;
15312;SDS011;7757;52.626;4.746;2022-12-29T10:28:50;11.30;;;2.08;;
15312;SDS011;7757;52.626;4.746;2022-12-29T10:31:21;10.15;;;1.80;;
15312;SDS011;7757;52.626;4.746;2022-12-29T10:33:51;12.70;;;2.25;;
15312;SDS011;7757;52.626;4.746;2022-12-29T10:36:24;10.63;;;1.98;;
15312;SDS011;7757;52.626;4.746;2022-12-29T10:38:58;12.18;;;2.55;;
15312;SDS011;7757;52.626;4.746;2022-12-29T10:41:32;10.73;;;1.63;;
15312;SDS011;7757;52.626;4.746;2022-12-29T10:44:04;8.43;;;1.40;;
15312;SDS011;7757;52.626;4.746;2022-12-29T10:46:32;10.23;;;1.60;;
15312;SDS011;7757;52.626;4.746;2022-12-29T10:49:03;8.18;;;1.40;;
15312;SDS011;7757;52.626;4.746;2022-12-29T10:51:32;12.13;;;1.70;;
15312;SDS011;7757;52.626;4.746;2022-12-29T10:54:03;11.07;;;1.73;;
15312;SDS011;7757;52.626;4.746;2022-12-29T10:56:38;10.50;;;1.77;;
15312;SDS011;7757;52.626;4.746;2022-12-29T10:59:10;7.03;;;1.57;;
15312;SDS011;7757;52.626;4.746;2022-12-29T11:01:44;9.25;;;1.77;;
15312;SDS011;7757;52.626;4.746;2022-12-29T11:04:32;8.13;;;1.50;;
15312;SDS011;7757;52.626;4.746;2022-12-29T11:07:06;8.63;;;1.75;;
15312;SDS011;7757;52.626;4.746;2022-12-29T11:09:35;7.93;;;1.70;;
15312;SDS011;7757;52.626;4.746;2022-12-29T11:12:16;10.52;;;1.63;;
15312;SDS011;7757;52.626;4.746;2022-12-29T11:14:54;9.88;;;1.75;;
15312;SDS011;7757;52.626;4.746;2022-12-29T11:17:27;8.88;;;1.73;;
15312;SDS011;7757;52.626;4.746;2022-12-29T11:19:59;8.60;;;1.60;;
15312;SDS011;7757;52.626;4.746;2022-12-29T11:22:46;10.20;;;1.67;;
15312;SDS011;7757;52.626;4.746;2022-12-29T11:25:12;10.52;;;1.67;;
15312;SDS011;7757;52.626;4.746;2022-12-29T11:27:39;10.90;;;2.00;;
15312;SDS011;7757;52.626;4.746;2022-12-29T11:30:22;9.73;;;1.63;;
15312;SDS011;7757;52.626;4.746;2022-12-29T11:32:54;7.88;;;1.50;;
15312;SDS011;7757;52.626;4.746;2022-12-29T11:35:33;7.88;;;1.60;;
15312;SDS011;7757;52.626;4.746;2022-12-29T11:38:02;8.80;;;1.42;;
15312;SDS011;7757;52.626;4.746;2022-12-29T11:40:30;8.43;;;1.60;;
15312;SDS011;7757;52.626;4.746;2022-12-29T11:43:04;7.57;;;1.50;;
15312;SDS011;7757;52.626;4.746;2022-12-29T11:45:32;9.68;;;1.80;;
15312;SDS011;7757;52.626;4.746;2022-12-29T11:48:05;10.02;;;1.90;;
15312;SDS011;7757;52.626;4.746;2022-12-29T11:50:37;11.80;;;1.63;;
15312;SDS011;7757;52.626;4.746;2022-12-29T11:53:07;9.27;;;1.70;;
15312;SDS011;7757;52.626;4.746;2022-12-29T11:55:49;9.32;;;1.45;;
15312;SDS011;7757;52.626;4.746;2022-12-29T11:58:17;7.47;;;1.55;;
15312;SDS011;7757;52.626;4.746;2022-12-29T12:00:44;8.40;;;1.52;;
15312;SDS011;7757;52.626;4.746;2022-12-29T12:03:13;6.97;;;1.30;;
15312;SDS011;7757;52.626;4.746;2022-12-29T12:05:45;11.13;;;1.88;;
15312;SDS011;7757;52.626;4.746;2022-12-29T12:08:18;7.95;;;1.60;;
15312;SDS011;7757;52.626;4.746;2022-12-29T12:10:52;7.65;;;1.48;;
15312;SDS011;7757;52.626;4.746;2022-12-29T12:13:25;9.18;;;1.55;;
15312;SDS011;7757;52.626;4.746;2022-12-29T12:15:59;8.57;;;1.92;;
15312;SDS011;7757;52.626;4.746;2022-12-29T12:18:37;7.82;;;1.45;;
15312;SDS011;7757;52.626;4.746;2022-12-29T12:21:09;8.75;;;1.40;;
15312;SDS011;7757;52.626;4.746;2022-12-29T12:23:44;9.43;;;1.77;;
15312;SDS011;7757;52.626;4.746;2022-12-29T12:26:42;8.23;;;1.48;;
15312;SDS011;7757;52.626;4.746;2022-12-29T12:29:19;8.93;;;1.60;;
15312;SDS011;7757;52.626;4.746;2022-12-29T12:31:51;6.57;;;1.35;;
15312;SDS011;7757;52.626;4.746;2022-12-29T12:34:22;7.95;;;1.20;;
15312;SDS011;7757;52.626;4.746;2022-12-29T12:37:09;12.73;;;1.27;;
15312;SDS011;7757;52.626;4.746;2022-12-29T12:39:47;8.85;;;1.38;;
15312;SDS011;7757;52.626;4.746;2022-12-29T12:42:30;8.15;;;1.52;;
15312;SDS011;7757;52.626;4.746;2022-12-29T12:45:20;5.82;;;1.08;;
15312;SDS011;7757;52.626;4.746;2022-12-29T12:48:00;8.95;;;1.35;;
15312;SDS011;7757;52.626;4.746;2022-12-29T12:50:38;6.03;;;1.27;;
15312;SDS011;7757;52.626;4.746;2022-12-29T12:53:22;8.73;;;1.50;;
15312;SDS011;7757;52.626;4.746;2022-12-29T12:56:03;7.47;;;1.48;;
15312;SDS011;7757;52.626;4.746;2022-12-29T12:58:47;6.05;;;1.30;;
15312;SDS011;7757;52.626;4.746;2022-12-29T13:01:23;8.30;;;1.55;;
15312;SDS011;7757;52.626;4.746;2022-12-29T13:04:21;8.57;;;1.60;;
15312;SDS011;7757;52.626;4.746;2022-12-29T13:07:02;7.80;;;1.65;;
15312;SDS011;7757;52.626;4.746;2022-12-29T13:09:43;7.03;;;1.35;;
15312;SDS011;7757;52.626;4.746;2022-12-29T13:15:01;11.45;;;1.35;;
15312;SDS011;7757;52.626;4.746;2022-12-29T13:17:41;6.90;;;1.20;;
15312;SDS011;7757;52.626;4.746;2022-12-29T13:20:18;6.35;;;1.40;;
15312;SDS011;7757;52.626;4.746;2022-12-29T13:22:53;5.30;;;1.50;;
15312;SDS011;7757;52.626;4.746;2022-12-29T13:25:29;5.78;;;1.20;;
15312;SDS011;7757;52.626;4.746;2022-12-29T13:28:01;5.93;;;1.20;;
15312;SDS011;7757;52.626;4.746;2022-12-29T13:30:33;7.60;;;1.40;;
15312;SDS011;7757;52.626;4.746;2022-12-29T13:33:05;5.97;;;1.00;;
15312;SDS011;7757;52.626;4.746;2022-12-29T13:35:46;6.25;;;1.38;;
15312;SDS011;7757;52.626;4.746;2022-12-29T13:38:29;7.15;;;1.25;;
15312;SDS011;7757;52.626;4.746;2022-12-29T13:41:03;8.18;;;1.35;;
15312;SDS011;7757;52.626;4.746;2022-12-29T13:43:32;8.35;;;1.38;;
15312;SDS011;7757;52.626;4.746;2022-12-29T13:46:04;7.75;;;1.48;;
15312;SDS011;7757;52.626;4.746;2022-12-29T13:48:37;5.43;;;1.13;;
15312;SDS011;7757;52.626;4.746;2022-12-29T13:51:07;3.30;;;1.02;;
15312;SDS011;7757;52.626;4.746;2022-12-29T13:53:37;7.78;;;1.20;;
15312;SDS011;7757;52.626;4.746;2022-12-29T13:56:21;7.63;;;1.20;;
15312;SDS011;7757;52.626;4.746;2022-12-29T13:58:52;6.68;;;1.30;;
15312;SDS011;7757;52.626;4.746;2022-12-29T14:01:21;5.75;;;1.27;;
15312;SDS011;7757;52.626;4.746;2022-12-29T14:03:55;7.43;;;1.15;;
15312;SDS011;7757;52.626;4.746;2022-12-29T14:06:23;5.35;;;1.23;;
15312;SDS011;7757;52.626;4.746;2022-12-29T14:08:52;5.85;;;1.23;;
15312;SDS011;7757;52.626;4.746;2022-12-29T14:11:22;8.93;;;1.50;;
15312;SDS011;7757;52.626;4.746;2022-12-29T14:16:25;7.60;;;1.20;;
15312;SDS011;7757;52.626;4.746;2022-12-29T14:18:54;5.45;;;1.25;;
15312;SDS011;7757;52.626;4.746;2022-12-29T14:21:24;6.55;;;1.30;;
15312;SDS011;7757;52.626;4.746;2022-12-29T14:23:56;9.20;;;1.40;;
15312;SDS011;7757;52.626;4.746;2022-12-29T14:26:43;10.65;;;1.45;;
15312;SDS011;7757;52.626;4.746;2022-12-29T14:29:16;8.15;;;1.30;;
15312;SDS011;7757;52.626;4.746;2022-12-29T14:38:06;8.90;;;1.60;;
15312;SDS011;7757;52.626;4.746;2022-12-29T14:40:33;7.82;;;1.48;;
15312;SDS011;7757;52.626;4.746;2022-12-29T14:43:01;6.75;;;1.30;;
15312;SDS011;7757;52.626;4.746;2022-12-29T14:45:39;7.53;;;1.30;;
15312;SDS011;7757;52.626;4.746;2022-12-29T14:48:20;4.38;;;1.25;;
15312;SDS011;7757;52.626;4.746;2022-12-29T14:50:56;6.80;;;1.30;;
15312;SDS011;7757;52.626;4.746;2022-12-29T14:53:41;8.20;;;1.30;;
15312;SDS011;7757;52.626;4.746;2022-12-29T14:56:11;6.90;;;1.33;;
15312;SDS011;7757;52.626;4.746;2022-12-29T14:58:43;5.93;;;1.17;;
15312;SDS011;7757;52.626;4.746;2022-12-29T15:01:18;10.40;;;1.38;;
15312;SDS011;7757;52.626;4.746;2022-12-29T15:06:18;7.20;;;1.40;;
15312;SDS011;7757;52.626;4.746;2022-12-29T15:08:51;11.85;;;1.30;;
15312;SDS011;7757;52.626;4.746;2022-12-29T15:11:28;6.97;;;1.35;;
15312;SDS011;7757;52.626;4.746;2022-12-29T15:16:57;8.60;;;1.27;;
15312;SDS011;7757;52.626;4.746;2022-12-29T15:19:25;7.22;;;1.40;;
15312;SDS011;7757;52.626;4.746;2022-12-29T15:21:52;7.72;;;1.25;;
15312;SDS011;7757;52.626;4.746;2022-12-29T15:24:21;6.78;;;1.40;;
15312;SDS011;7757;52.626;4.746;2022-12-29T15:26:50;7.68;;;1.40;;
15312;SDS011;7757;52.626;4.746;2022-12-29T15:29:33;7.75;;;1.30;;
15312;SDS011;7757;52.626;4.746;2022-12-29T15:32:16;9.75;;;1.55;;
15312;SDS011;7757;52.626;4.746;2022-12-29T15:34:47;8.43;;;1.30;;
15312;SDS011;7757;52.626;4.746;2022-12-29T15:37:16;6.90;;;1.25;;
15312;SDS011;7757;52.626;4.746;2022-12-29T15:39:44;7.45;;;1.38;;
15312;SDS011;7757;52.626;4.746;2022-12-29T15:42:15;9.13;;;1.65;;